Dove Creek, Colorado
Current Conditions -  °F | °C
As of 7:55 AM on Wednesday 22 Oct 2014 (Local Time) from KBDG Reporting Station
Clear Clear  
Wind Chill: 41°   Ceiling: Unl
Heat Index: 45°   Visibility: 10mi
Dew Point: 40°   Wind: 7mph
Humidity: 82%   Direction: 30°NNE
Pressure: 30.22"   Gusts: NA
Location:  37.77°N, 108.91°W
Report Text: KBDG 221355Z AUTO 03006KT 10SM CLR 07/04 A3022 RMK AO1 T00720043
Loading
Personal Weather Stations






























Interactive Weather Map
Tropical Storm Tracking
New forecast layout! Learn more

10-Day Weather Forecast

Advertisements
Track Severe Weather on mobile